createdAt,value
2023-02-22T00:03:00.042Z,80.40
2023-02-22T00:06:05.145Z,80.13
2023-02-22T00:09:09.349Z,80.76
2023-02-22T00:12:11.253Z,80.43
2023-02-22T00:15:15.639Z,79.89
2023-02-22T00:18:19.776Z,79.72
2023-02-22T00:21:22.279Z,79.67
2023-02-22T00:24:24.705Z,79.65
2023-02-22T00:27:26.556Z,79.45
2023-02-22T00:30:32.005Z,79.65
2023-02-22T00:33:33.953Z,79.93
2023-02-22T00:36:35.776Z,79.81
2023-02-22T00:39:37.696Z,79.58
2023-02-22T00:42:39.518Z,79.67
2023-02-22T00:45:41.865Z,79.74
2023-02-22T00:48:44.642Z,79.11
2023-02-22T00:51:46.459Z,78.59
2023-02-22T00:54:48.294Z,78.34
2023-02-22T00:57:51.310Z,78.91
2023-02-22T01:00:53.079Z,79.30
2023-02-22T01:03:55.086Z,79.03
2023-02-22T01:06:57.148Z,79.55
2023-02-22T01:10:03.074Z,79.05
2023-02-22T01:13:09.317Z,79.15
2023-02-22T01:16:11.544Z,79.78
2023-02-22T01:19:13.848Z,79.49
2023-02-22T01:22:15.786Z,79.47
2023-02-22T01:25:20.836Z,79.77
2023-02-22T01:28:23.720Z,79.76
2023-02-22T01:31:25.667Z,79.83
2023-02-22T01:34:27.782Z,79.72
2023-02-22T01:37:29.710Z,79.82
2023-02-22T01:40:35.272Z,79.95
2023-02-22T01:43:38.754Z,79.95
2023-02-22T01:46:40.680Z,79.75
2023-02-22T01:49:48.133Z,79.47
2023-02-22T01:52:50.545Z,79.50
2023-02-22T01:55:55.553Z,78.87
2023-02-22T01:59:01.779Z,78.52
2023-02-22T02:02:07.483Z,78.13
2023-02-22T02:05:10.242Z,77.91
2023-02-22T02:08:36.092Z,77.45
2023-02-22T02:11:43.164Z,77.85
2023-02-22T02:14:45.030Z,77.83
2023-02-22T02:17:49.301Z,77.00
2023-02-22T02:21:39.153Z,77.26
2023-02-22T02:25:10.975Z,76.74
2023-02-22T02:28:34.845Z,76.50
2023-02-22T02:32:11.980Z,76.36
2023-02-22T02:35:17.045Z,76.45
2023-02-22T02:38:40.048Z,76.06
2023-02-22T02:41:50.800Z,75.85
2023-02-22T02:44:58.515Z,76.10
2023-02-22T02:48:05.984Z,75.62
2023-02-22T02:51:10.912Z,75.72
2023-02-22T02:54:14.794Z,75.13
2023-02-22T02:57:16.891Z,74.99
2023-02-22T03:00:23.179Z,75.58
2023-02-22T03:03:57.396Z,75.31
2023-02-22T03:07:13.424Z,75.30
2023-02-22T03:10:24.773Z,74.70
2023-02-22T03:13:40.535Z,74.57
2023-02-22T03:16:56.662Z,73.80
2023-02-22T03:20:09.804Z,74.67
2023-02-22T03:23:25.486Z,74.49
2023-02-22T03:27:12.474Z,74.40
2023-02-22T03:30:31.894Z,74.25
2023-02-22T03:33:40.400Z,74.42
2023-02-22T03:36:56.058Z,74.15
2023-02-22T03:40:01.040Z,74.29
2023-02-22T03:43:14.880Z,72.92
2023-02-22T03:46:19.591Z,73.08
2023-02-22T03:49:39.471Z,74.02
2023-02-22T03:52:44.201Z,74.11
2023-02-22T03:55:55.688Z,73.88
2023-02-22T03:58:58.095Z,74.00
2023-02-22T04:02:00.043Z,73.20
2023-02-22T04:05:02.271Z,73.68
2023-02-22T04:08:06.509Z,72.80
2023-02-22T04:11:09.031Z,72.81
2023-02-22T04:14:11.245Z,72.75
2023-02-22T04:17:13.137Z,72.43
2023-02-22T04:20:15.591Z,73.09
2023-02-22T04:23:40.352Z,72.42
2023-02-22T04:26:43.210Z,72.83
2023-02-22T04:29:46.110Z,72.68
2023-02-22T04:32:48.455Z,72.62
2023-02-22T04:35:54.209Z,72.32
2023-02-22T04:38:56.137Z,72.38
2023-02-22T04:41:58.059Z,72.63
2023-02-22T04:45:00.355Z,72.91
2023-02-22T04:48:02.415Z,71.97
2023-02-22T04:51:04.609Z,72.44
2023-02-22T04:54:07.404Z,72.20
2023-02-22T04:57:11.491Z,71.75
2023-02-22T05:00:17.811Z,72.42
2023-02-22T05:03:19.908Z,72.47
2023-02-22T05:06:21.803Z,73.02
2023-02-22T05:09:23.769Z,72.93
2023-02-22T05:12:27.725Z,72.83
2023-02-22T05:15:29.626Z,72.89
2023-02-22T05:18:31.489Z,73.52
2023-02-22T05:21:33.624Z,74.21
2023-02-22T05:24:35.529Z,74.70
2023-02-22T05:27:37.395Z,74.86
2023-02-22T05:30:39.947Z,74.72
2023-02-22T05:33:41.943Z,74.90
2023-02-22T05:36:43.929Z,76.26
2023-02-22T05:39:46.590Z,76.11
2023-02-22T05:42:49.971Z,76.71
2023-02-22T05:45:51.800Z,75.19
2023-02-22T05:48:53.665Z,73.07
2023-02-22T05:51:59.612Z,73.02
2023-02-22T05:55:01.505Z,72.38
2023-02-22T05:58:05.969Z,72.24
2023-02-22T06:01:07.859Z,70.92
2023-02-22T06:04:09.698Z,70.34
2023-02-22T06:07:12.110Z,70.45
2023-02-22T06:10:14.062Z,70.21
2023-02-22T06:13:16.028Z,69.37
2023-02-22T06:16:18.159Z,67.34
2023-02-22T06:19:20.125Z,66.95
2023-02-22T06:22:21.946Z,66.32
2023-02-22T06:25:31.265Z,65.54
2023-02-22T06:28:33.135Z,64.87
2023-02-22T06:31:35.520Z,64.64
2023-02-22T06:34:37.386Z,64.28
2023-02-22T06:37:40.360Z,64.67
2023-02-22T06:40:42.125Z,63.71
2023-02-22T06:43:44.036Z,64.18
2023-02-22T06:46:51.250Z,64.08
2023-02-22T06:49:54.612Z,63.21
2023-02-22T06:52:57.400Z,63.48
2023-02-22T06:55:59.281Z,63.27
2023-02-22T06:59:02.822Z,63.13
2023-02-22T07:02:04.826Z,62.65
2023-02-22T07:05:06.877Z,62.46
2023-02-22T07:08:08.922Z,62.04
2023-02-22T07:11:11.964Z,61.32
2023-02-22T07:14:16.239Z,61.68
2023-02-22T07:17:18.129Z,61.43
2023-02-22T07:20:21.119Z,60.87
2023-02-22T07:23:24.286Z,60.03
2023-02-22T07:26:27.075Z,60.08
2023-02-22T07:29:28.960Z,59.83
2023-02-22T07:32:30.946Z,59.90
2023-02-22T07:35:38.640Z,59.42
2023-02-22T07:38:40.841Z,59.14
2023-02-22T07:41:42.701Z,59.29
2023-02-22T07:44:57.047Z,58.94
2023-02-22T07:48:00.618Z,58.04
2023-02-22T07:51:02.399Z,58.04
2023-02-22T07:54:04.331Z,57.89
2023-02-22T07:57:06.086Z,58.48
2023-02-22T08:00:08.807Z,57.58
2023-02-22T08:03:17.223Z,56.53
2023-02-22T08:06:21.039Z,55.61
2023-02-22T08:09:23.731Z,55.95
2023-02-22T08:12:26.763Z,56.11
2023-02-22T08:15:31.792Z,56.39
2023-02-22T08:18:33.767Z,57.62
2023-02-22T08:21:35.628Z,57.47
2023-02-22T08:24:37.534Z,58.38
2023-02-22T08:27:39.612Z,58.10
2023-02-22T08:30:44.867Z,58.03
2023-02-22T08:33:50.105Z,58.41
2023-02-22T08:36:52.065Z,56.91
2023-02-22T08:39:56.237Z,56.55
2023-02-22T08:42:58.899Z,56.47
2023-02-22T08:46:01.044Z,55.05
2023-02-22T08:49:03.300Z,54.76
2023-02-22T08:52:05.400Z,54.33
2023-02-22T08:55:07.424Z,54.88
2023-02-22T08:58:09.596Z,54.24
2023-02-22T09:01:12.118Z,54.04
2023-02-22T09:04:14.745Z,54.95
2023-02-22T09:07:17.229Z,54.94
2023-02-22T09:10:24.573Z,55.67
2023-02-22T09:13:26.507Z,56.13
2023-02-22T09:16:29.269Z,57.12
2023-02-22T09:19:31.262Z,57.80
2023-02-22T09:22:33.438Z,58.03
2023-02-22T09:25:35.877Z,57.22
2023-02-22T09:28:37.803Z,56.56
2023-02-22T09:31:41.251Z,55.55
2023-02-22T09:34:45.963Z,55.19
2023-02-22T09:37:47.964Z,54.82
2023-02-22T09:40:52.491Z,54.09
2023-02-22T09:44:22.636Z,53.03
2023-02-22T09:47:40.356Z,53.57
2023-02-22T09:50:46.325Z,52.06
2023-02-22T09:53:52.380Z,53.07
2023-02-22T09:56:58.419Z,51.84
2023-02-22T10:00:14.916Z,52.78
2023-02-22T10:03:39.168Z,53.55
2023-02-22T10:06:54.962Z,54.32
2023-02-22T10:09:58.522Z,54.05
2023-02-22T10:13:09.377Z,53.15
2023-02-22T10:16:48.525Z,52.90
2023-02-22T10:20:17.546Z,52.61
2023-02-22T10:23:44.850Z,51.52
2023-02-22T10:26:47.202Z,53.16
2023-02-22T10:30:24.646Z,53.07
2023-02-22T10:33:32.236Z,54.70
2023-02-22T10:36:34.604Z,54.94
2023-02-22T10:39:39.873Z,54.16
2023-02-22T10:42:41.813Z,53.88
2023-02-22T10:45:43.704Z,54.16
2023-02-22T10:48:48.778Z,54.58
2023-02-22T10:52:01.368Z,54.22
2023-02-22T10:55:14.975Z,54.25
2023-02-22T10:58:17.428Z,54.22
2023-02-22T11:01:32.789Z,53.93
2023-02-22T11:04:55.449Z,53.54
2023-02-22T11:08:22.322Z,53.99
2023-02-22T11:11:26.253Z,54.42
2023-02-22T11:14:31.075Z,54.29
2023-02-22T11:17:34.668Z,54.41
2023-02-22T11:20:39.737Z,53.42
2023-02-22T11:23:44.937Z,52.94
2023-02-22T11:26:54.811Z,52.51
2023-02-22T11:30:11.819Z,52.83
2023-02-22T11:33:17.027Z,52.86
2023-02-22T11:36:37.440Z,51.70
2023-02-22T11:39:43.580Z,53.41
2023-02-22T11:42:47.008Z,53.82
2023-02-22T11:46:12.843Z,53.13
2023-02-22T11:49:18.180Z,53.99
2023-02-22T11:52:23.021Z,53.19
2023-02-22T11:55:42.788Z,52.95
2023-02-22T11:59:29.398Z,53.03
2023-02-22T12:02:51.793Z,53.31
2023-02-22T12:06:07.066Z,53.66
2023-02-22T12:09:14.963Z,54.17
2023-02-22T12:12:38.561Z,53.29
2023-02-22T12:15:56.436Z,54.67
2023-02-22T12:19:13.806Z,53.33
2023-02-22T12:22:24.270Z,54.01
2023-02-22T12:25:31.670Z,54.50
2023-02-22T12:28:53.994Z,54.58
2023-02-22T12:32:16.412Z,54.29
2023-02-22T12:35:25.689Z,54.21
2023-02-22T12:38:39.916Z,54.44
2023-02-22T12:41:48.504Z,54.40
2023-02-22T12:45:00.165Z,54.66
2023-02-22T12:48:39.712Z,54.61
2023-02-22T12:52:03.094Z,55.26
2023-02-22T12:55:31.784Z,55.42
2023-02-22T12:58:45.227Z,55.19
2023-02-22T13:01:55.230Z,55.00
2023-02-22T13:04:57.521Z,55.09
2023-02-22T13:08:40.715Z,54.54
2023-02-22T13:12:07.042Z,52.18
2023-02-22T13:15:18.054Z,51.98
2023-02-22T13:18:33.187Z,51.50
2023-02-22T13:21:43.766Z,51.71
2023-02-22T13:24:56.751Z,51.97
2023-02-22T13:28:13.763Z,49.30
2023-02-22T13:31:47.548Z,48.39
2023-02-22T13:34:56.009Z,50.05
2023-02-22T13:38:08.303Z,50.30
2023-02-22T13:41:28.511Z,50.53
2023-02-22T13:45:08.022Z,51.29
2023-02-22T13:48:12.874Z,51.44
2023-02-22T13:51:36.578Z,51.58
2023-02-22T13:54:46.705Z,52.29
2023-02-22T13:57:51.813Z,52.48
2023-02-22T14:00:58.027Z,52.23
2023-02-22T14:04:27.834Z,51.71
2023-02-22T14:07:33.820Z,52.51
2023-02-22T14:10:39.904Z,52.51
2023-02-22T14:13:55.755Z,51.68
2023-02-22T14:17:20.806Z,52.92
2023-02-22T14:20:30.435Z,52.79
2023-02-22T14:23:52.203Z,51.86
2023-02-22T14:27:14.021Z,53.05
2023-02-22T14:30:26.515Z,52.58
2023-02-22T14:33:52.466Z,52.65
2023-02-22T14:37:05.366Z,53.23
2023-02-22T14:40:21.898Z,53.66
2023-02-22T14:43:25.506Z,53.95
2023-02-22T14:46:33.122Z,54.80
2023-02-22T14:49:41.486Z,55.04
2023-02-22T14:52:46.707Z,54.38
2023-02-22T14:56:15.559Z,55.37
2023-02-22T14:59:17.502Z,55.23
2023-02-22T15:02:22.770Z,55.51
2023-02-22T15:05:30.373Z,55.00
2023-02-22T15:08:34.279Z,55.39
2023-02-22T15:11:36.279Z,55.48
2023-02-22T15:14:39.052Z,55.91
2023-02-22T15:17:41.332Z,55.76
2023-02-22T15:20:43.299Z,56.21
2023-02-22T15:23:51.374Z,56.88
2023-02-22T15:27:01.952Z,56.64
2023-02-22T15:30:29.843Z,57.50
2023-02-22T15:33:38.153Z,57.75
2023-02-22T15:36:44.393Z,56.92
2023-02-22T15:39:46.267Z,56.92
2023-02-22T15:42:53.101Z,57.57
2023-02-22T15:45:56.206Z,57.90
2023-02-22T15:49:10.190Z,57.44
2023-02-22T15:52:26.023Z,57.14
2023-02-22T15:55:29.892Z,57.75
2023-02-22T15:58:31.935Z,58.47
2023-02-22T16:01:40.708Z,58.36
2023-02-22T16:04:51.376Z,58.71
2023-02-22T16:08:00.007Z,58.43
2023-02-22T16:11:13.600Z,58.71
2023-02-22T16:14:28.790Z,58.67
2023-02-22T16:17:39.861Z,59.37
2023-02-22T16:20:44.640Z,59.18
2023-02-22T16:23:57.399Z,59.27
2023-02-22T16:27:05.883Z,59.40
2023-02-22T16:30:24.436Z,60.04
2023-02-22T16:33:32.182Z,60.04
2023-02-22T16:36:45.297Z,59.64
2023-02-22T16:39:47.096Z,60.37
2023-02-22T16:42:51.490Z,60.13
2023-02-22T16:45:53.432Z,60.58
2023-02-22T16:48:55.311Z,60.68
2023-02-22T16:52:01.632Z,60.89
2023-02-22T16:55:05.233Z,60.98
2023-02-22T16:58:07.307Z,60.77
2023-02-22T17:01:09.668Z,61.38
2023-02-22T17:04:20.448Z,60.45
2023-02-22T17:07:30.851Z,60.95
2023-02-22T17:10:34.189Z,60.73
2023-02-22T17:13:36.121Z,61.07
2023-02-22T17:16:37.905Z,60.82
2023-02-22T17:19:39.865Z,60.60
2023-02-22T17:22:43.078Z,60.89
2023-02-22T17:25:51.143Z,61.03
2023-02-22T17:28:52.939Z,61.16
2023-02-22T17:31:55.166Z,60.64
2023-02-22T17:34:57.013Z,60.52
2023-02-22T17:38:00.864Z,60.92
2023-02-22T17:41:03.444Z,61.14
2023-02-22T17:44:05.698Z,61.05
2023-02-22T17:47:07.915Z,61.04
2023-02-22T17:50:11.889Z,61.50
2023-02-22T17:53:14.491Z,61.77
2023-02-22T17:56:19.346Z,61.71
2023-02-22T17:59:22.530Z,61.86
2023-02-22T18:02:24.499Z,61.93
2023-02-22T18:05:26.809Z,61.70
2023-02-22T18:08:31.178Z,61.91
2023-02-22T18:11:33.009Z,61.86
2023-02-22T18:14:34.865Z,62.09
2023-02-22T18:17:37.992Z,62.20
2023-02-22T18:20:44.675Z,62.60
2023-02-22T18:23:46.482Z,62.32
2023-02-22T18:26:48.444Z,62.61
2023-02-22T18:29:50.330Z,62.78
2023-02-22T18:32:52.286Z,62.69
2023-02-22T18:35:55.259Z,62.91
2023-02-22T18:38:57.036Z,62.76
2023-02-22T18:41:58.850Z,62.40
2023-02-22T18:45:03.345Z,62.25
2023-02-22T18:48:05.246Z,62.34
2023-02-22T18:51:10.342Z,62.75
2023-02-22T18:54:13.254Z,63.17
2023-02-22T18:57:15.330Z,63.09
2023-02-22T19:00:24.253Z,62.93
2023-02-22T19:03:26.611Z,63.19
2023-02-22T19:06:28.897Z,62.64
2023-02-22T19:09:31.204Z,62.31
2023-02-22T19:12:33.877Z,62.21
2023-02-22T19:15:35.740Z,61.58
2023-02-22T19:18:37.834Z,61.70
2023-02-22T19:21:39.886Z,61.46
2023-02-22T19:24:45.444Z,61.69
2023-02-22T19:27:47.252Z,61.73
2023-02-22T19:30:49.204Z,61.72
2023-02-22T19:33:53.795Z,61.51
2023-02-22T19:36:56.135Z,61.96
2023-02-22T19:39:58.019Z,61.26
2023-02-22T19:42:59.954Z,61.26
2023-02-22T19:46:06.725Z,61.30
2023-02-22T19:49:08.771Z,61.12
2023-02-22T19:52:10.855Z,61.22
2023-02-22T19:55:13.033Z,61.45
2023-02-22T19:58:15.518Z,61.36
2023-02-22T20:01:23.240Z,61.79
2023-02-22T20:04:25.864Z,61.95
2023-02-22T20:07:27.884Z,61.77
2023-02-22T20:10:29.865Z,61.88
2023-02-22T20:13:31.875Z,62.15
2023-02-22T20:16:35.485Z,62.38
2023-02-22T20:19:38.825Z,62.10
2023-02-22T20:22:40.784Z,62.57
2023-02-22T20:25:42.880Z,62.33
2023-02-22T20:28:45.298Z,62.71
2023-02-22T20:31:52.560Z,62.78
2023-02-22T20:34:54.517Z,62.88
2023-02-22T20:37:56.385Z,62.89
2023-02-22T20:40:58.287Z,63.08
2023-02-22T20:44:01.715Z,63.06
2023-02-22T20:47:04.079Z,63.22
2023-02-22T20:50:07.425Z,63.10
2023-02-22T20:53:09.291Z,63.19
2023-02-22T20:56:16.148Z,63.28
2023-02-22T20:59:19.322Z,63.58
2023-02-22T21:02:21.330Z,63.65
2023-02-22T21:05:23.213Z,63.41
2023-02-22T21:08:25.098Z,63.31
2023-02-22T21:11:30.673Z,63.60
2023-02-22T21:14:32.711Z,63.86
2023-02-22T21:17:36.483Z,63.65
2023-02-22T21:20:41.220Z,63.75
2023-02-22T21:23:43.366Z,63.94
2023-02-22T21:26:45.293Z,64.57
2023-02-22T21:29:47.233Z,64.30
2023-02-22T21:32:54.029Z,64.26
2023-02-22T21:35:55.926Z,64.48
2023-02-22T21:39:00.393Z,64.48
2023-02-22T21:42:02.781Z,64.24
2023-02-22T21:45:05.008Z,64.75
2023-02-22T21:48:06.874Z,65.03
2023-02-22T21:51:14.102Z,65.21
2023-02-22T21:54:16.946Z,64.55
2023-02-22T21:57:18.905Z,65.14
2023-02-22T22:00:29.259Z,64.82
2023-02-22T22:03:31.293Z,64.99
2023-02-22T22:06:35.738Z,64.67
2023-02-22T22:09:41.351Z,64.56
2023-02-22T22:12:46.236Z,64.80
2023-02-22T22:15:48.713Z,64.77
2023-02-22T22:18:50.569Z,65.01
2023-02-22T22:21:54.111Z,64.78
2023-02-22T22:24:56.433Z,64.98
2023-02-22T22:27:58.562Z,64.86
2023-02-22T22:31:00.479Z,64.93
2023-02-22T22:34:02.821Z,65.04
2023-02-22T22:37:04.665Z,65.10
2023-02-22T22:40:10.686Z,65.07
2023-02-22T22:43:12.566Z,65.55
2023-02-22T22:46:16.737Z,65.36
2023-02-22T22:49:20.535Z,65.64
2023-02-22T22:52:24.350Z,66.20
2023-02-22T22:55:26.250Z,66.09
2023-02-22T22:58:28.139Z,65.97
2023-02-22T23:01:33.308Z,65.68
2023-02-22T23:04:36.903Z,66.04
2023-02-22T23:07:38.780Z,66.05
2023-02-22T23:10:41.333Z,65.87
2023-02-22T23:13:43.217Z,66.24
2023-02-22T23:16:46.274Z,65.92
2023-02-22T23:19:48.197Z,66.03
2023-02-22T23:22:50.011Z,66.22
2023-02-22T23:26:18.855Z,65.75
2023-02-22T23:29:22.938Z,66.13
2023-02-22T23:32:26.899Z,65.88
2023-02-22T23:35:28.866Z,66.03
2023-02-22T23:38:31.719Z,65.82
2023-02-22T23:41:36.476Z,66.08
2023-02-22T23:44:39.891Z,66.07
2023-02-22T23:47:43.691Z,65.87
2023-02-22T23:50:46.589Z,65.98
2023-02-22T23:53:49.551Z,66.48
2023-02-22T23:56:57.831Z,66.76
